Stations météo

réclame
Mon MeteoGroup
Catanzaro, Italie (16365): Température de l'air & dewpoint: 16.10.2017 11:00:00 - 22.10.2017 11:00:00 (CEST)Catanzaro, Italie (16365): Vitesse du vent: 16.10.2017 11:00:00 - 22.10.2017 11:00:00 (CEST)Catanzaro, Italie (16365): Direction du vent: 16.10.2017 11:00:00 - 22.10.2017 11:00:00 (CEST)Catanzaro, Italie (16365): reduced air pressure: 16.10.2017 11:00:00 - 22.10.2017 11:00:00 (CEST)Catanzaro, Italie (16365): Quantités de précipitations: 16.10.2017 11:00:00 - 22.10.2017 11:00:00 (CEST)
Date & Time tt [°C] td [°C] ff [km/h] ff [knt] dd ppp [hPa] rr [mm]
22.10.2017 11:00:00 - - - - - - -
22.10.2017 10:00:00 16,7 10,9 22 12 W 1019,5 -
22.10.2017 09:00:00 15,8 9,6 22 12 WNW 1019,6 -
22.10.2017 08:00:00 15,3 8,7 28 15 WNW 1019,7 0,0
22.10.2017 07:00:00 15,2 9,7 28 15 NW 1019,5 -
22.10.2017 06:00:00 15,2 8,8 16 9 NW 1019,5 -
22.10.2017 05:00:00 15,1 8,0 16 9 NW 1019,3 -
22.10.2017 04:00:00 15,0 9,1 18 10 NW 1019,9 -
22.10.2017 03:00:00 15,5 8,4 18 10 NW 1020,5 -
22.10.2017 02:00:00 16,0 6,6 18 10 NW 1020,3 0,0
22.10.2017 01:00:00 16,0 8,4 21 11 NW 1020,4 -
22.10.2017 00:00:00 16,2 8,4 21 11 NW 1020,5 -
21.10.2017 23:00:00 16,5 7,4 13 7 NW 1020,7 -
21.10.2017 22:00:00 16,6 4,8 16 9 NW 1020,5 -
21.10.2017 21:00:00 16,3 6,3 8 4 NW 1020,5 -
21.10.2017 20:00:00 16,5 11,2 4 2 NW 1020,5 0,0
21.10.2017 19:00:00 17,1 12,4 15 8 W 1020,3 -
21.10.2017 18:00:00 18,4 9,9 22 12 WNW 1020,2 -
21.10.2017 17:00:00 19,8 9,0 8 4 WSW 1019,8 -
21.10.2017 16:00:00 19,6 11,3 4 2 S 1019,8 -
21.10.2017 15:00:00 19,6 11,3 11 6 S 1019,7 -
21.10.2017 14:00:00 19,7 11,2 8 4 S 1020,2 0,0
21.10.2017 13:00:00 19,5 10,7 11 6 SSE 1020,9 -
21.10.2017 12:00:00 19,3 9,7 5 3 SW 1021,5 -
21.10.2017 11:00:00 18,6 9,9 5 3 S 1021,6 -
21.10.2017 10:00:00 17,0 10,1 4 2 W 1021,7 -
21.10.2017 09:00:00 16,6 10,4 4 2 WSW 1021,4 -
21.10.2017 08:00:00 15,7 10,0 4 2 W 1021,1 0,0
21.10.2017 07:00:00 15,2 10,3 2 1 W 1020,8 -
21.10.2017 06:00:00 15,2 10,8 4 2 N 1020,8 -
21.10.2017 05:00:00 15,6 11,5 4 2 W 1020,8 -
21.10.2017 04:00:00 15,9 10,4 5 3 W 1020,7 -
21.10.2017 03:00:00 16,4 10,2 4 2 ESE 1020,8 -
21.10.2017 02:00:00 16,4 11,7 5 3 N 1020,8 0,0
21.10.2017 01:00:00 16,3 12,0 5 3 N 1020,9 -
21.10.2017 00:00:00 16,7 13,5 4 2 NW 1021,1 -
20.10.2017 23:00:00 16,9 13,7 0 0 N 1021,0 -
20.10.2017 22:00:00 16,6 13,8 2 1 N 1020,9 -
20.10.2017 21:00:00 16,9 14,1 0 0 N 1020,4 -
20.10.2017 20:00:00 17,1 14,1 0 0 N 1020,3 0,0
20.10.2017 19:00:00 17,3 14,1 2 1 E 1019,9 -
20.10.2017 18:00:00 18,2 14,0 8 4 ESE 1019,5 -
20.10.2017 17:00:00 18,9 13,9 5 3 ESE 1019,1 -
20.10.2017 16:00:00 19,5 13,1 13 7 SSE 1018,8 -
20.10.2017 15:00:00 20,5 11,4 5 3 E 1018,6 -
20.10.2017 14:00:00 20,0 10,9 9 5 SSE 1018,9 0,0
20.10.2017 13:00:00 19,6 11,6 11 6 SSE 1019,6 -
20.10.2017 12:00:00 19,4 10,1 9 5 ESE 1019,6 -
20.10.2017 11:00:00 18,5 10,8 9 5 ESE 1019,4 -
20.10.2017 10:00:00 17,8 9,4 2 1 E 1019,1 -
20.10.2017 09:00:00 17,4 9,5 5 3 E 1019,0 -
20.10.2017 08:00:00 16,2 9,1 2 1 N 1018,6 0,0
20.10.2017 07:00:00 16,0 10,7 2 1 SE 1018,5 -
20.10.2017 06:00:00 16,5 8,4 0 0 N 1018,1 -
20.10.2017 05:00:00 16,6 7,5 0 0 N 1018,0 -
20.10.2017 04:00:00 16,7 9,3 0 0 N 1017,9 -
20.10.2017 03:00:00 16,6 8,2 5 3 NNW 1018,1 -
20.10.2017 02:00:00 16,4 7,0 5 3 N 1018,2 0,0
20.10.2017 01:00:00 16,6 7,5 0 0 N 1018,4 -
20.10.2017 00:00:00 16,5 6,8 0 0 N 1018,4 -
19.10.2017 23:00:00 16,4 8,6 0 0 N 1018,5 -
19.10.2017 22:00:00 16,5 13,5 0 0 N 1018,5 -
19.10.2017 21:00:00 16,6 13,6 2 1 WSW 1018,6 -
19.10.2017 20:00:00 16,7 13,9 0 0 N 1018,5 0,0
19.10.2017 19:00:00 17,0 14,0 0 0 N 1018,1 -
19.10.2017 18:00:00 17,9 14,1 9 5 SE 1017,9 -
19.10.2017 17:00:00 18,0 14,0 8 4 S 1017,8 -
19.10.2017 16:00:00 18,4 12,1 9 5 SSE 1017,8 -
19.10.2017 15:00:00 18,6 11,6 5 3 S 1017,9 -
19.10.2017 14:00:00 20,0 9,8 13 7 SSE 1017,9 0,0
19.10.2017 13:00:00 20,6 10,1 9 5 ENE 1018,3 -
19.10.2017 12:00:00 19,9 7,9 4 2 SSW 1018,8 -
19.10.2017 11:00:00 19,1 9,2 8 4 E 1019,0 -
19.10.2017 10:00:00 17,7 8,5 2 1 WSW 1019,2 -
19.10.2017 09:00:00 16,8 9,2 4 2 S 1018,9 -
19.10.2017 08:00:00 15,6 7,3 0 0 N 1018,6 0,0
19.10.2017 07:00:00 15,3 5,4 0 0 N 1018,6 -
19.10.2017 06:00:00 15,3 4,3 8 4 WNW 1018,7 -
19.10.2017 05:00:00 16,2 5,4 11 6 WNW 1018,3 -
19.10.2017 04:00:00 15,5 6,9 11 6 WNW 1018,5 -
19.10.2017 03:00:00 15,2 7,4 11 6 WNW 1019,0 -
19.10.2017 02:00:00 15,2 7,7 13 7 WNW 1018,9 0,0
19.10.2017 01:00:00 15,3 7,3 18 10 WNW 1019,0 -
19.10.2017 00:00:00 15,7 9,3 13 7 WNW 1019,1 -
18.10.2017 23:00:00 15,9 10,0 24 13 WNW 1019,0 -
18.10.2017 22:00:00 16,0 11,5 18 10 WNW 1019,1 -
18.10.2017 21:00:00 16,1 12,6 21 11 W 1019,1 -
18.10.2017 20:00:00 16,3 13,0 13 7 W 1019,2 0,0
18.10.2017 19:00:00 16,6 12,9 9 5 N 1018,8 -
18.10.2017 18:00:00 17,6 12,0 22 12 W 1018,6 -
18.10.2017 17:00:00 19,0 12,2 16 9 W 1018,2 -
18.10.2017 16:00:00 19,3 11,8 16 9 W 1018,5 -
18.10.2017 15:00:00 19,9 11,9 22 12 W 1018,7 -
18.10.2017 14:00:00 20,0 11,2 15 8 W 1019,2 0,0
18.10.2017 13:00:00 19,6 10,8 11 6 WNW 1020,0 -
18.10.2017 12:00:00 19,0 10,8 13 7 W 1020,8 -
18.10.2017 11:00:00 18,3 11,1 11 6 W 1021,1 -
18.10.2017 10:00:00 17,1 10,2 9 5 W 1021,1 -
18.10.2017 09:00:00 16,1 6,4 11 6 WNW 1021,1 -
18.10.2017 08:00:00 15,2 7,9 18 10 WNW 1021,2 0,0
18.10.2017 07:00:00 15,2 6,4 16 9 WNW 1021,2 -
18.10.2017 06:00:00 15,5 3,5 16 9 WNW 1021,2 -
18.10.2017 05:00:00 15,3 6,8 16 9 WNW 1021,3 -
18.10.2017 04:00:00 15,5 6,9 21 11 WNW 1021,7 -
18.10.2017 03:00:00 16,5 5,1 13 7 WNW 1022,0 -
18.10.2017 02:00:00 16,8 5,3 11 6 WNW 1022,4 0,0
18.10.2017 01:00:00 17,0 5,8 22 12 WNW 1022,5 -
18.10.2017 00:00:00 17,1 6,5 13 7 WNW 1022,9 -
17.10.2017 23:00:00 17,0 6,7 18 10 WNW 1023,0 -
17.10.2017 22:00:00 16,6 7,5 11 6 WNW 1023,1 -
17.10.2017 21:00:00 17,1 10,2 9 5 NW 1023,1 -
17.10.2017 20:00:00 16,9 11,6 2 1 W 1023,3 0,0
17.10.2017 19:00:00 17,3 11,9 4 2 S 1023,7 -
17.10.2017 18:00:00 18,5 8,4 5 3 S 1023,5 -
17.10.2017 17:00:00 19,7 5,6 11 6 S 1023,4 -
17.10.2017 16:00:00 20,3 5,1 9 5 SSE 1023,5 -
17.10.2017 15:00:00 20,7 5,0 15 8 SSE 1023,9 -
17.10.2017 14:00:00 20,7 5,8 5 3 SSE 1024,6 0,0
17.10.2017 13:00:00 20,3 7,2 13 7 S 1025,5 -
17.10.2017 12:00:00 20,6 7,5 11 6 SE 1025,9 -
17.10.2017 11:00:00 19,6 7,3 0 0 N 1026,3 -
17.10.2017 10:00:00 18,5 9,5 5 3 SW 1026,3 -
17.10.2017 09:00:00 17,7 8,7 5 3 SSW 1026,2 -
17.10.2017 08:00:00 16,7 8,1 2 1 WSW 1026,0 0,0
17.10.2017 07:00:00 16,2 8,6 8 4 W 1025,8 -
17.10.2017 06:00:00 16,3 7,4 8 4 W 1025,8 -
17.10.2017 05:00:00 16,3 8,5 5 3 WNW 1025,9 -
17.10.2017 04:00:00 16,1 8,0 2 1 NW 1025,9 -
17.10.2017 03:00:00 16,6 9,0 4 2 W 1026,5 -
17.10.2017 02:00:00 16,6 9,5 5 3 WNW 1026,7 0,0
17.10.2017 01:00:00 17,2 10,7 4 2 S 1027,0 -
17.10.2017 00:00:00 17,2 11,4 0 0 N 1027,2 -
16.10.2017 23:00:00 16,5 11,8 5 3 N 1027,3 -
16.10.2017 22:00:00 16,2 12,5 4 2 N 1027,5 -
16.10.2017 21:00:00 16,4 12,1 0 0 N 1027,3 -
16.10.2017 20:00:00 17,0 12,7 4 2 SW 1027,1 0,0
16.10.2017 19:00:00 17,4 12,5 4 2 S 1026,9 -
16.10.2017 18:00:00 18,4 12,1 5 3 SSE 1026,4 -
16.10.2017 17:00:00 19,6 11,8 9 5 S 1026,3 -
16.10.2017 16:00:00 20,0 10,9 9 5 SSE 1026,5 -
16.10.2017 15:00:00 20,2 10,8 11 6 S 1026,9 -
16.10.2017 14:00:00 20,9 11,2 9 5 ESE 1026,7 0,0
16.10.2017 13:00:00 21,6 8,8 8 4 WSW 1027,1 -
16.10.2017 12:00:00 20,8 9,0 8 4 W 1027,6 -
16.10.2017 11:00:00 19,6 9,1 4 2 E 1028,1 -

tt = Température de l'air
td = dewpoint
ff = Vitesse du vent
dd = Direction du vent
ppp = reduced air pressure
rr = Quantités de précipitations

stations d'obs. à proximité